sensor_id;sensor_type;location;lat;lon;timestamp;pressure;altitude;pressure_sealevel;temperature;humidity
9822;BME280;4950;46.042;14.472;2023-04-20T00:00:14;97749.53;;;12.76;68.55
9822;BME280;4950;46.042;14.472;2023-04-20T00:02:42;97749.72;;;12.81;68.01
9822;BME280;4950;46.042;14.472;2023-04-20T00:05:09;97749.69;;;12.74;68.42
9822;BME280;4950;46.042;14.472;2023-04-20T00:07:37;97750.81;;;12.58;69.16
9822;BME280;4950;46.042;14.472;2023-04-20T00:10:08;97739.25;;;12.68;68.59
9822;BME280;4950;46.042;14.472;2023-04-20T00:12:34;97743.41;;;12.62;67.85
9822;BME280;4950;46.042;14.472;2023-04-20T00:15:01;97740.72;;;12.49;68.04
9822;BME280;4950;46.042;14.472;2023-04-20T00:17:28;97740.28;;;12.45;67.94
9822;BME280;4950;46.042;14.472;2023-04-20T00:19:55;97738.44;;;12.39;68.30
9822;BME280;4950;46.042;14.472;2023-04-20T00:22:21;97743.06;;;12.43;68.08
9822;BME280;4950;46.042;14.472;2023-04-20T00:24:49;97734.22;;;12.38;68.33
9822;BME280;4950;46.042;14.472;2023-04-20T00:27:17;97731.34;;;12.26;68.70
9822;BME280;4950;46.042;14.472;2023-04-20T00:29:43;97737.47;;;12.18;69.38
9822;BME280;4950;46.042;14.472;2023-04-20T00:32:10;97739.91;;;12.20;69.23
9822;BME280;4950;46.042;14.472;2023-04-20T00:34:37;97730.94;;;12.22;69.19
9822;BME280;4950;46.042;14.472;2023-04-20T00:37:04;97733.94;;;12.26;69.05
9822;BME280;4950;46.042;14.472;2023-04-20T00:39:31;97734.06;;;12.18;68.93
9822;BME280;4950;46.042;14.472;2023-04-20T00:42:02;97737.28;;;12.20;69.26
9822;BME280;4950;46.042;14.472;2023-04-20T00:44:30;97729.91;;;12.23;69.18
9822;BME280;4950;46.042;14.472;2023-04-20T00:46:57;97732.16;;;12.27;68.62
9822;BME280;4950;46.042;14.472;2023-04-20T00:49:25;97730.50;;;12.19;68.57
9822;BME280;4950;46.042;14.472;2023-04-20T00:51:54;97724.06;;;12.15;69.36
9822;BME280;4950;46.042;14.472;2023-04-20T00:54:21;97721.97;;;12.03;69.77
9822;BME280;4950;46.042;14.472;2023-04-20T00:56:48;97719.53;;;12.02;69.61
9822;BME280;4950;46.042;14.472;2023-04-20T00:59:15;97726.38;;;12.03;69.96
9822;BME280;4950;46.042;14.472;2023-04-20T01:01:43;97727.69;;;11.99;69.90
9822;BME280;4950;46.042;14.472;2023-04-20T01:04:10;97730.31;;;11.99;69.76
9822;BME280;4950;46.042;14.472;2023-04-20T01:06:36;97726.84;;;11.92;70.09
9822;BME280;4950;46.042;14.472;2023-04-20T01:09:03;97725.09;;;11.99;69.76
9822;BME280;4950;46.042;14.472;2023-04-20T01:11:30;97723.06;;;11.94;69.55
9822;BME280;4950;46.042;14.472;2023-04-20T01:13:57;97722.28;;;11.94;69.74
9822;BME280;4950;46.042;14.472;2023-04-20T01:16:23;97723.63;;;11.90;70.05
9822;BME280;4950;46.042;14.472;2023-04-20T01:18:52;97722.63;;;11.91;69.62
9822;BME280;4950;46.042;14.472;2023-04-20T01:21:19;97721.84;;;11.90;69.35
9822;BME280;4950;46.042;14.472;2023-04-20T01:23:48;97722.28;;;11.94;68.67
9822;BME280;4950;46.042;14.472;2023-04-20T01:26:17;97717.53;;;11.82;69.21
9822;BME280;4950;46.042;14.472;2023-04-20T01:28:45;97719.50;;;11.80;69.17
9822;BME280;4950;46.042;14.472;2023-04-20T01:31:12;97715.41;;;11.71;69.67
9822;BME280;4950;46.042;14.472;2023-04-20T01:33:39;97716.47;;;11.77;69.27
9822;BME280;4950;46.042;14.472;2023-04-20T01:36:06;97717.88;;;11.79;68.84
9822;BME280;4950;46.042;14.472;2023-04-20T01:38:33;97725.50;;;11.81;69.16
9822;BME280;4950;46.042;14.472;2023-04-20T01:41:02;97715.69;;;11.76;69.03
9822;BME280;4950;46.042;14.472;2023-04-20T01:43:30;97724.44;;;11.75;68.96
9822;BME280;4950;46.042;14.472;2023-04-20T01:45:58;97722.78;;;11.68;68.80
9822;BME280;4950;46.042;14.472;2023-04-20T01:48:24;97714.56;;;11.64;68.94
9822;BME280;4950;46.042;14.472;2023-04-20T01:50:51;97724.13;;;11.63;68.91
9822;BME280;4950;46.042;14.472;2023-04-20T01:53:18;97718.72;;;11.58;69.08
9822;BME280;4950;46.042;14.472;2023-04-20T01:55:45;97714.97;;;11.68;68.60
9822;BME280;4950;46.042;14.472;2023-04-20T01:58:14;97707.88;;;11.76;68.29
9822;BME280;4950;46.042;14.472;2023-04-20T02:00:41;97718.81;;;11.72;68.25
9822;BME280;4950;46.042;14.472;2023-04-20T02:03:07;97715.81;;;11.68;68.01
9822;BME280;4950;46.042;14.472;2023-04-20T02:05:34;97715.59;;;11.70;67.18
9822;BME280;4950;46.042;14.472;2023-04-20T02:08:00;97720.91;;;11.61;68.07
9822;BME280;4950;46.042;14.472;2023-04-20T02:10:27;97711.22;;;11.49;68.40
9822;BME280;4950;46.042;14.472;2023-04-20T02:12:54;97708.84;;;11.54;68.80
9822;BME280;4950;46.042;14.472;2023-04-20T02:15:22;97715.53;;;11.63;68.45
9822;BME280;4950;46.042;14.472;2023-04-20T02:17:48;97709.38;;;11.64;68.31
9822;BME280;4950;46.042;14.472;2023-04-20T02:20:16;97713.38;;;11.66;67.83
9822;BME280;4950;46.042;14.472;2023-04-20T02:22:44;97719.19;;;11.69;67.56
9822;BME280;4950;46.042;14.472;2023-04-20T02:25:11;97707.44;;;11.73;67.68
9822;BME280;4950;46.042;14.472;2023-04-20T02:27:37;97710.53;;;11.61;67.56
9822;BME280;4950;46.042;14.472;2023-04-20T02:30:05;97712.81;;;11.71;67.25
9822;BME280;4950;46.042;14.472;2023-04-20T02:32:34;97705.63;;;11.73;67.11
9822;BME280;4950;46.042;14.472;2023-04-20T02:35:00;97706.19;;;11.69;66.85
9822;BME280;4950;46.042;14.472;2023-04-20T02:37:28;97708.66;;;11.55;67.60
9822;BME280;4950;46.042;14.472;2023-04-20T02:39:55;97709.91;;;11.59;67.22
9822;BME280;4950;46.042;14.472;2023-04-20T02:42:21;97706.25;;;11.54;67.24
9822;BME280;4950;46.042;14.472;2023-04-20T02:44:48;97708.66;;;11.55;67.36
9822;BME280;4950;46.042;14.472;2023-04-20T02:47:16;97711.34;;;11.62;65.94
9822;BME280;4950;46.042;14.472;2023-04-20T02:49:44;97710.19;;;11.50;66.86
9822;BME280;4950;46.042;14.472;2023-04-20T02:52:11;97710.19;;;11.50;66.86
9822;BME280;4950;46.042;14.472;2023-04-20T02:54:38;97711.81;;;11.51;66.59
9822;BME280;4950;46.042;14.472;2023-04-20T02:57:04;97711.28;;;11.40;66.88
9822;BME280;4950;46.042;14.472;2023-04-20T02:59:31;97710.88;;;11.37;67.15
9822;BME280;4950;46.042;14.472;2023-04-20T03:01:58;97715.88;;;11.38;67.38
9822;BME280;4950;46.042;14.472;2023-04-20T03:04:24;97708.50;;;11.42;67.31
9822;BME280;4950;46.042;14.472;2023-04-20T03:06:53;97703.84;;;11.52;66.80
9822;BME280;4950;46.042;14.472;2023-04-20T03:09:20;97708.50;;;11.42;67.05
9822;BME280;4950;46.042;14.472;2023-04-20T03:11:46;97709.44;;;11.34;67.84
9822;BME280;4950;46.042;14.472;2023-04-20T03:14:13;97714.47;;;11.36;67.32
9822;BME280;4950;46.042;14.472;2023-04-20T03:16:39;97712.31;;;11.24;67.70
9822;BME280;4950;46.042;14.472;2023-04-20T03:19:06;97715.25;;;11.36;67.19
9822;BME280;4950;46.042;14.472;2023-04-20T03:21:33;97713.06;;;11.18;67.73
9822;BME280;4950;46.042;14.472;2023-04-20T03:24:01;97716.22;;;11.14;68.09
9822;BME280;4950;46.042;14.472;2023-04-20T03:26:28;97718.63;;;11.15;67.84
9822;BME280;4950;46.042;14.472;2023-04-20T03:28:54;97726.94;;;11.11;67.70
9822;BME280;4950;46.042;14.472;2023-04-20T03:31:21;97724.97;;;11.13;67.50
9822;BME280;4950;46.042;14.472;2023-04-20T03:33:47;97718.19;;;11.12;67.37
9822;BME280;4950;46.042;14.472;2023-04-20T03:36:14;97718.53;;;11.09;67.75
9822;BME280;4950;46.042;14.472;2023-04-20T03:38:41;97730.00;;;10.99;67.98
9822;BME280;4950;46.042;14.472;2023-04-20T03:41:09;97717.75;;;10.93;68.27
9822;BME280;4950;46.042;14.472;2023-04-20T03:43:35;97726.16;;;11.10;67.54
9822;BME280;4950;46.042;14.472;2023-04-20T03:46:02;97724.19;;;11.12;67.31
9822;BME280;4950;46.042;14.472;2023-04-20T03:48:28;97728.84;;;11.02;68.12
9822;BME280;4950;46.042;14.472;2023-04-20T03:50:55;97727.94;;;10.95;67.87
9822;BME280;4950;46.042;14.472;2023-04-20T03:53:21;97738.53;;;10.78;68.49
9822;BME280;4950;46.042;14.472;2023-04-20T03:55:48;97733.94;;;10.95;67.39
9822;BME280;4950;46.042;14.472;2023-04-20T03:58:16;97733.44;;;11.00;67.57
9822;BME280;4950;46.042;14.472;2023-04-20T04:00:43;97736.38;;;10.97;68.23
9822;BME280;4950;46.042;14.472;2023-04-20T04:03:09;97739.06;;;10.89;69.10
9822;BME280;4950;46.042;14.472;2023-04-20T04:05:36;97743.09;;;10.76;69.86
9822;BME280;4950;46.042;14.472;2023-04-20T04:08:03;97742.81;;;10.71;70.28
9822;BME280;4950;46.042;14.472;2023-04-20T04:10:29;97746.84;;;10.74;70.90
9822;BME280;4950;46.042;14.472;2023-04-20T04:12:56;97743.25;;;10.90;70.73
9822;BME280;4950;46.042;14.472;2023-04-20T04:15:24;97747.41;;;10.84;69.79
9822;BME280;4950;46.042;14.472;2023-04-20T04:17:52;97750.88;;;10.76;70.22
9822;BME280;4950;46.042;14.472;2023-04-20T04:20:20;97749.91;;;10.62;70.90
9822;BME280;4950;46.042;14.472;2023-04-20T04:22:47;97748.72;;;10.65;71.37
9822;BME280;4950;46.042;14.472;2023-04-20T04:25:13;97752.66;;;10.61;70.98
9822;BME280;4950;46.042;14.472;2023-04-20T04:27:40;97750.25;;;10.59;71.94
9822;BME280;4950;46.042;14.472;2023-04-20T04:30:07;97756.34;;;10.66;71.97
9822;BME280;4950;46.042;14.472;2023-04-20T04:32:36;97752.47;;;10.77;71.06
9822;BME280;4950;46.042;14.472;2023-04-20T04:35:04;97759.91;;;10.65;71.03
9822;BME280;4950;46.042;14.472;2023-04-20T04:37:30;97753.28;;;10.78;70.39
9822;BME280;4950;46.042;14.472;2023-04-20T04:39:57;97758.66;;;10.61;70.73
9822;BME280;4950;46.042;14.472;2023-04-20T04:42:24;97752.22;;;10.57;71.02
9822;BME280;4950;46.042;14.472;2023-04-20T04:44:52;97765.47;;;10.62;70.83
9822;BME280;4950;46.042;14.472;2023-04-20T04:47:20;97762.41;;;10.59;71.01
9822;BME280;4950;46.042;14.472;2023-04-20T04:49:49;97762.13;;;10.54;71.01
9822;BME280;4950;46.042;14.472;2023-04-20T04:52:15;97770.91;;;10.53;70.51
9822;BME280;4950;46.042;14.472;2023-04-20T04:54:42;97765.09;;;10.51;70.76
9822;BME280;4950;46.042;14.472;2023-04-20T04:57:08;97775.47;;;10.51;71.06
9822;BME280;4950;46.042;14.472;2023-04-20T04:59:35;97772.88;;;10.51;71.35
9822;BME280;4950;46.042;14.472;2023-04-20T05:02:01;97773.13;;;10.56;70.73
9822;BME280;4950;46.042;14.472;2023-04-20T05:04:28;97771.34;;;10.56;70.63
9822;BME280;4950;46.042;14.472;2023-04-20T05:06:56;97771.00;;;10.59;70.70
9822;BME280;4950;46.042;14.472;2023-04-20T05:09:23;97771.09;;;10.66;69.71
9822;BME280;4950;46.042;14.472;2023-04-20T05:11:49;97771.91;;;10.66;70.12
9822;BME280;4950;46.042;14.472;2023-04-20T05:14:16;97779.00;;;10.73;69.44
9822;BME280;4950;46.042;14.472;2023-04-20T05:16:43;97775.22;;;10.75;69.66
9822;BME280;4950;46.042;14.472;2023-04-20T05:19:09;97784.72;;;10.83;69.19
9822;BME280;4950;46.042;14.472;2023-04-20T05:21:36;97773.88;;;10.79;68.91
9822;BME280;4950;46.042;14.472;2023-04-20T05:24:05;97775.69;;;10.79;68.58
9822;BME280;4950;46.042;14.472;2023-04-20T05:26:31;97777.03;;;10.75;68.85
9822;BME280;4950;46.042;14.472;2023-04-20T05:28:58;97782.22;;;10.75;69.32
9822;BME280;4950;46.042;14.472;2023-04-20T05:31:24;97785.53;;;10.83;69.06
9822;BME280;4950;46.042;14.472;2023-04-20T05:33:51;97783.94;;;10.82;68.07
9822;BME280;4950;46.042;14.472;2023-04-20T05:36:18;97783.66;;;10.77;68.16
9822;BME280;4950;46.042;14.472;2023-04-20T05:38:45;97790.81;;;10.75;68.98
9822;BME280;4950;46.042;14.472;2023-04-20T05:41:13;97787.88;;;10.78;68.64
9822;BME280;4950;46.042;14.472;2023-04-20T05:43:39;97789.75;;;10.84;67.90
9822;BME280;4950;46.042;14.472;2023-04-20T05:46:06;97790.72;;;10.83;67.90
9822;BME280;4950;46.042;14.472;2023-04-20T05:48:33;97794.22;;;10.91;67.31
9822;BME280;4950;46.042;14.472;2023-04-20T05:50:59;97796.13;;;10.82;67.62
9822;BME280;4950;46.042;14.472;2023-04-20T05:53:26;97803.63;;;10.77;67.57
9822;BME280;4950;46.042;14.472;2023-04-20T05:55:52;97803.63;;;10.77;67.59
9822;BME280;4950;46.042;14.472;2023-04-20T05:58:20;97804.31;;;10.71;68.29
9822;BME280;4950;46.042;14.472;2023-04-20T06:00:47;97808.00;;;10.76;68.47
9822;BME280;4950;46.042;14.472;2023-04-20T06:03:14;97804.06;;;10.80;68.06
9822;BME280;4950;46.042;14.472;2023-04-20T06:05:40;97803.00;;;10.90;67.14
9822;BME280;4950;46.042;14.472;2023-04-20T06:08:07;97802.56;;;10.86;67.38
9822;BME280;4950;46.042;14.472;2023-04-20T06:10:33;97803.97;;;10.74;68.08
9822;BME280;4950;46.042;14.472;2023-04-20T06:13:00;97811.28;;;10.70;68.72
9822;BME280;4950;46.042;14.472;2023-04-20T06:15:28;97808.06;;;10.68;68.15
9822;BME280;4950;46.042;14.472;2023-04-20T06:17:55;97817.78;;;10.74;68.52
9822;BME280;4950;46.042;14.472;2023-04-20T06:20:21;97806.50;;;10.82;68.21
9822;BME280;4950;46.042;14.472;2023-04-20T06:22:48;97809.97;;;10.89;66.90
9822;BME280;4950;46.042;14.472;2023-04-20T06:25:15;97810.44;;;10.93;67.00
9822;BME280;4950;46.042;14.472;2023-04-20T06:27:41;97812.75;;;10.87;67.00
9822;BME280;4950;46.042;14.472;2023-04-20T06:30:09;97824.94;;;10.87;66.86
9822;BME280;4950;46.042;14.472;2023-04-20T06:32:37;97827.91;;;10.84;67.28
9822;BME280;4950;46.042;14.472;2023-04-20T06:35:04;97825.72;;;10.87;67.21
9822;BME280;4950;46.042;14.472;2023-04-20T06:37:31;97833.34;;;10.89;67.28
9822;BME280;4950;46.042;14.472;2023-04-20T06:39:58;97824.34;;;11.00;66.66
9822;BME280;4950;46.042;14.472;2023-04-20T06:42:25;97838.91;;;11.01;66.43
9822;BME280;4950;46.042;14.472;2023-04-20T06:44:52;97834.34;;;11.03;65.87
9822;BME280;4950;46.042;14.472;2023-04-20T06:47:20;97834.00;;;11.06;66.08
9822;BME280;4950;46.042;14.472;2023-04-20T06:49:48;97838.66;;;11.11;65.71
9822;BME280;4950;46.042;14.472;2023-04-20T06:52:14;97834.91;;;11.28;64.07
9822;BME280;4950;46.042;14.472;2023-04-20T06:54:41;97829.25;;;11.24;64.46
9822;BME280;4950;46.042;14.472;2023-04-20T06:57:07;97829.34;;;11.16;64.50
9822;BME280;4950;46.042;14.472;2023-04-20T06:59:34;97827.47;;;11.10;64.20
9822;BME280;4950;46.042;14.472;2023-04-20T07:02:01;97831.66;;;11.11;64.46
9822;BME280;4950;46.042;14.472;2023-04-20T07:04:27;97821.38;;;11.18;64.29
9822;BME280;4950;46.042;14.472;2023-04-20T07:06:55;97825.31;;;11.14;64.08
9822;BME280;4950;46.042;14.472;2023-04-20T07:09:22;97827.13;;;11.13;64.27
9822;BME280;4950;46.042;14.472;2023-04-20T07:11:49;97823.44;;;11.07;65.16
9822;BME280;4950;46.042;14.472;2023-04-20T07:14:15;97820.47;;;11.11;65.67
9822;BME280;4950;46.042;14.472;2023-04-20T07:16:42;97821.72;;;11.15;65.81
9822;BME280;4950;46.042;14.472;2023-04-20T07:19:08;97821.38;;;11.18;65.22
9822;BME280;4950;46.042;14.472;2023-04-20T07:21:36;97820.75;;;11.16;64.26
9822;BME280;4950;46.042;14.472;2023-04-20T07:24:04;97826.41;;;11.19;64.24
9822;BME280;4950;46.042;14.472;2023-04-20T07:26:31;97828.28;;;11.25;64.67
9822;BME280;4950;46.042;14.472;2023-04-20T07:28:57;97829.06;;;11.26;64.29
9822;BME280;4950;46.042;14.472;2023-04-20T07:31:24;97836.16;;;11.32;64.10
9822;BME280;4950;46.042;14.472;2023-04-20T07:33:51;97834.00;;;11.36;64.05
9822;BME280;4950;46.042;14.472;2023-04-20T07:36:17;97829.53;;;11.44;63.34
9822;BME280;4950;46.042;14.472;2023-04-20T07:38:45;97833.84;;;11.52;62.46
9822;BME280;4950;46.042;14.472;2023-04-20T07:41:14;97840.00;;;11.51;62.96
9822;BME280;4950;46.042;14.472;2023-04-20T07:43:40;97833.84;;;11.52;62.60
9822;BME280;4950;46.042;14.472;2023-04-20T07:46:08;97832.56;;;11.48;62.46
9822;BME280;4950;46.042;14.472;2023-04-20T07:48:35;97836.16;;;11.47;62.80
9822;BME280;4950;46.042;14.472;2023-04-20T07:51:03;97835.88;;;11.57;62.28
9822;BME280;4950;46.042;14.472;2023-04-20T07:53:29;97831.75;;;11.62;61.98
9822;BME280;4950;46.042;14.472;2023-04-20T07:55:56;97836.50;;;11.59;62.11
9822;BME280;4950;46.042;14.472;2023-04-20T07:58:24;97835.88;;;11.57;61.78
9822;BME280;4950;46.042;14.472;2023-04-20T08:00:50;97833.91;;;11.59;62.09
9822;BME280;4950;46.042;14.472;2023-04-20T08:03:17;97843.94;;;11.62;61.89
9822;BME280;4950;46.042;14.472;2023-04-20T08:05:45;97852.38;;;11.64;61.74
9822;BME280;4950;46.042;14.472;2023-04-20T08:08:11;97851.19;;;11.66;61.65
9822;BME280;4950;46.042;14.472;2023-04-20T08:10:38;97849.22;;;11.69;62.66
9822;BME280;4950;46.042;14.472;2023-04-20T08:13:04;97861.84;;;11.72;61.90
9822;BME280;4950;46.042;14.472;2023-04-20T08:15:32;97857.03;;;11.69;61.62
9822;BME280;4950;46.042;14.472;2023-04-20T08:18:00;97856.28;;;11.75;61.11
9822;BME280;4950;46.042;14.472;2023-04-20T08:20:26;97858.88;;;11.75;61.50
9822;BME280;4950;46.042;14.472;2023-04-20T08:22:53;97857.72;;;11.77;61.77
9822;BME280;4950;46.042;14.472;2023-04-20T08:25:19;97852.34;;;11.79;62.18
9822;BME280;4950;46.042;14.472;2023-04-20T08:27:46;97857.00;;;11.83;61.61
9822;BME280;4950;46.042;14.472;2023-04-20T08:30:13;97854.94;;;11.79;61.18
9822;BME280;4950;46.042;14.472;2023-04-20T08:32:41;97855.94;;;11.78;61.04
9822;BME280;4950;46.042;14.472;2023-04-20T08:35:07;97845.09;;;11.74;61.28
9822;BME280;4950;46.042;14.472;2023-04-20T08:37:34;97850.47;;;11.73;61.06
9822;BME280;4950;46.042;14.472;2023-04-20T08:40:01;97846.50;;;11.77;60.89
9822;BME280;4950;46.042;14.472;2023-04-20T08:42:29;97860.41;;;11.69;61.47
9822;BME280;4950;46.042;14.472;2023-04-20T08:44:56;97862.22;;;11.69;61.82
9822;BME280;4950;46.042;14.472;2023-04-20T08:47:24;97856.63;;;11.72;61.57
9822;BME280;4950;46.042;14.472;2023-04-20T08:49:52;97860.13;;;11.79;61.39
9822;BME280;4950;46.042;14.472;2023-04-20T08:52:20;97860.69;;;11.74;62.54
9822;BME280;4950;46.042;14.472;2023-04-20T08:54:46;97855.94;;;11.78;61.75
9822;BME280;4950;46.042;14.472;2023-04-20T08:57:13;97863.38;;;11.96;60.90
9822;BME280;4950;46.042;14.472;2023-04-20T08:59:39;97857.72;;;11.92;60.62
9822;BME280;4950;46.042;14.472;2023-04-20T09:02:09;97859.00;;;11.66;61.87
9822;BME280;4950;46.042;14.472;2023-04-20T09:04:37;97851.53;;;11.63;62.25
9822;BME280;4950;46.042;14.472;2023-04-20T09:07:06;97861.50;;;11.60;62.78
9822;BME280;4950;46.042;14.472;2023-04-20T09:09:34;97862.22;;;11.69;62.25
9822;BME280;4950;46.042;14.472;2023-04-20T09:12:01;97861.31;;;11.76;62.48
9822;BME280;4950;46.042;14.472;2023-04-20T09:14:28;97870.25;;;11.89;62.00
9822;BME280;4950;46.042;14.472;2023-04-20T09:16:57;97866.75;;;11.81;62.13
9822;BME280;4950;46.042;14.472;2023-04-20T09:19:27;97861.13;;;11.78;62.23
9822;BME280;4950;46.042;14.472;2023-04-20T09:21:55;97859.69;;;11.75;62.29
9822;BME280;4950;46.042;14.472;2023-04-20T09:24:30;97866.13;;;11.79;61.73
9822;BME280;4950;46.042;14.472;2023-04-20T09:26:56;97874.94;;;11.78;62.79
9822;BME280;4950;46.042;14.472;2023-04-20T09:29:23;97858.34;;;11.79;62.67
9822;BME280;4950;46.042;14.472;2023-04-20T09:31:51;97859.50;;;11.77;62.20
9822;BME280;4950;46.042;14.472;2023-04-20T09:34:18;97856.13;;;11.76;62.54
9822;BME280;4950;46.042;14.472;2023-04-20T09:36:47;97855.56;;;11.96;60.98
9822;BME280;4950;46.042;14.472;2023-04-20T09:39:17;97844.53;;;11.94;60.92
9822;BME280;4950;46.042;14.472;2023-04-20T09:41:45;97851.34;;;11.95;60.59
9822;BME280;4950;46.042;14.472;2023-04-20T09:44:13;97851.88;;;11.75;62.01
9822;BME280;4950;46.042;14.472;2023-04-20T09:46:40;97852.63;;;11.69;62.24
9822;BME280;4950;46.042;14.472;2023-04-20T09:49:09;97843.63;;;11.72;62.28
9822;BME280;4950;46.042;14.472;2023-04-20T09:51:37;97852.50;;;11.77;62.26
9822;BME280;4950;46.042;14.472;2023-04-20T09:54:06;97841.81;;;11.87;62.17
9822;BME280;4950;46.042;14.472;2023-04-20T09:56:34;97843.97;;;11.98;61.92
9822;BME280;4950;46.042;14.472;2023-04-20T09:59:02;97848.75;;;12.16;60.52
9822;BME280;4950;46.042;14.472;2023-04-20T10:01:29;97846.78;;;12.18;60.78
9822;BME280;4950;46.042;14.472;2023-04-20T10:04:00;97844.50;;;12.30;60.06
9822;BME280;4950;46.042;14.472;2023-04-20T10:06:29;97855.03;;;12.22;60.78
9822;BME280;4950;46.042;14.472;2023-04-20T10:08:56;97848.75;;;12.16;61.19
9822;BME280;4950;46.042;14.472;2023-04-20T10:11:25;97851.19;;;12.18;60.77
9822;BME280;4950;46.042;14.472;2023-04-20T10:13:51;97851.00;;;12.19;60.92
9822;BME280;4950;46.042;14.472;2023-04-20T10:16:20;97850.81;;;12.21;60.95
9822;BME280;4950;46.042;14.472;2023-04-20T10:18:57;97846.69;;;12.27;60.80
9822;BME280;4950;46.042;14.472;2023-04-20T10:21:24;97852.50;;;12.29;61.49
9822;BME280;4950;46.042;14.472;2023-04-20T10:23:52;97848.34;;;12.34;61.19
9822;BME280;4950;46.042;14.472;2023-04-20T10:26:19;97853.63;;;12.41;61.63
9822;BME280;4950;46.042;14.472;2023-04-20T10:28:45;97853.03;;;12.45;61.08
9822;BME280;4950;46.042;14.472;2023-04-20T10:31:13;97851.50;;;12.51;60.22
9822;BME280;4950;46.042;14.472;2023-04-20T10:33:52;97846.53;;;12.56;60.49
9822;BME280;4950;46.042;14.472;2023-04-20T10:36:24;97847.78;;;12.60;60.68
9822;BME280;4950;46.042;14.472;2023-04-20T10:38:50;97843.63;;;12.66;60.58
9822;BME280;4950;46.042;14.472;2023-04-20T10:41:17;97847.13;;;12.80;59.44
9822;BME280;4950;46.042;14.472;2023-04-20T10:43:45;97843.03;;;12.71;59.80
9822;BME280;4950;46.042;14.472;2023-04-20T10:46:15;97837.22;;;12.69;59.74
9822;BME280;4950;46.042;14.472;2023-04-20T10:48:50;97849.88;;;12.72;60.36
9822;BME280;4950;46.042;14.472;2023-04-20T10:51:18;97841.22;;;12.71;60.61
9822;BME280;4950;46.042;14.472;2023-04-20T10:53:45;97843.28;;;12.76;59.91
9822;BME280;4950;46.042;14.472;2023-04-20T10:56:11;97839.13;;;12.81;59.66
9822;BME280;4950;46.042;14.472;2023-04-20T10:58:38;97831.13;;;12.83;59.51
9822;BME280;4950;46.042;14.472;2023-04-20T11:01:05;97831.34;;;12.88;60.21
9822;BME280;4950;46.042;14.472;2023-04-20T11:03:32;97829.22;;;12.98;60.51
9822;BME280;4950;46.042;14.472;2023-04-20T11:05:59;97832.84;;;13.04;60.36
9822;BME280;4950;46.042;14.472;2023-04-20T11:08:50;97831.06;;;13.04;59.69
9822;BME280;4950;46.042;14.472;2023-04-20T11:11:17;97826.47;;;13.07;59.59
9822;BME280;4950;46.042;14.472;2023-04-20T11:13:44;97827.44;;;12.99;59.55
9822;BME280;4950;46.042;14.472;2023-04-20T11:16:11;97821.63;;;13.03;59.10
9822;BME280;4950;46.042;14.472;2023-04-20T11:18:47;97826.59;;;12.98;59.02
9822;BME280;4950;46.042;14.472;2023-04-20T11:21:15;97825.22;;;13.02;58.75
9822;BME280;4950;46.042;14.472;2023-04-20T11:23:42;97816.44;;;13.10;58.71
9822;BME280;4950;46.042;14.472;2023-04-20T11:26:10;97826.88;;;13.10;59.02
9822;BME280;4950;46.042;14.472;2023-04-20T11:28:37;97830.06;;;13.06;59.10
9822;BME280;4950;46.042;14.472;2023-04-20T11:31:04;97823.44;;;13.03;58.88
9822;BME280;4950;46.042;14.472;2023-04-20T11:33:30;97830.69;;;13.08;59.09
9822;BME280;4950;46.042;14.472;2023-04-20T11:35:59;97828.31;;;13.13;59.63
9822;BME280;4950;46.042;14.472;2023-04-20T11:38:27;97822.50;;;13.17;60.07
9822;BME280;4950;46.042;14.472;2023-04-20T11:40:53;97833.38;;;13.21;60.24
9822;BME280;4950;46.042;14.472;2023-04-20T11:43:22;97827.53;;;13.19;59.92
9822;BME280;4950;46.042;14.472;2023-04-20T11:45:48;97826.94;;;13.17;59.71
9822;BME280;4950;46.042;14.472;2023-04-20T11:48:15;97825.13;;;13.17;59.67
9822;BME280;4950;46.042;14.472;2023-04-20T11:50:42;97823.91;;;13.20;59.66
9822;BME280;4950;46.042;14.472;2023-04-20T11:53:09;97827.03;;;13.30;60.22
9822;BME280;4950;46.042;14.472;2023-04-20T11:55:38;97828.25;;;13.34;60.09
9822;BME280;4950;46.042;14.472;2023-04-20T11:58:05;97828.69;;;13.38;60.14
9822;BME280;4950;46.042;14.472;2023-04-20T12:00:33;97822.09;;;13.42;60.38
9822;BME280;4950;46.042;14.472;2023-04-20T12:03:00;97821.31;;;13.48;60.27
9822;BME280;4950;46.042;14.472;2023-04-20T12:05:27;97818.72;;;13.55;60.19
9822;BME280;4950;46.042;14.472;2023-04-20T12:07:54;97822.53;;;13.59;59.85
9822;BME280;4950;46.042;14.472;2023-04-20T12:10:21;97818.53;;;13.63;59.68
9822;BME280;4950;46.042;14.472;2023-04-20T12:12:47;97815.94;;;13.63;59.45
9822;BME280;4950;46.042;14.472;2023-04-20T12:15:14;97819.31;;;13.57;58.55
9822;BME280;4950;46.042;14.472;2023-04-20T12:17:42;97818.34;;;13.58;58.23
9822;BME280;4950;46.042;14.472;2023-04-20T12:20:09;97820.94;;;13.58;59.07
9822;BME280;4950;46.042;14.472;2023-04-20T12:22:37;97819.56;;;13.62;59.00
9822;BME280;4950;46.042;14.472;2023-04-20T12:25:04;97814.53;;;13.60;58.38
9822;BME280;4950;46.042;14.472;2023-04-20T12:27:31;97806.75;;;13.67;57.84
9822;BME280;4950;46.042;14.472;2023-04-20T12:29:58;97807.72;;;13.73;57.41
9822;BME280;4950;46.042;14.472;2023-04-20T12:32:24;97815.97;;;13.70;57.52
9822;BME280;4950;46.042;14.472;2023-04-20T12:34:52;97807.94;;;13.71;58.05
9822;BME280;4950;46.042;14.472;2023-04-20T12:37:19;97810.34;;;13.73;58.55
9822;BME280;4950;46.042;14.472;2023-04-20T12:39:45;97811.16;;;13.73;58.58
9822;BME280;4950;46.042;14.472;2023-04-20T12:42:12;97808.75;;;13.72;58.90
9822;BME280;4950;46.042;14.472;2023-04-20T12:44:39;97802.31;;;13.74;59.47
9822;BME280;4950;46.042;14.472;2023-04-20T12:47:05;97802.94;;;13.76;59.90
9822;BME280;4950;46.042;14.472;2023-04-20T12:49:32;97798.31;;;13.78;61.04
9822;BME280;4950;46.042;14.472;2023-04-20T12:52:00;97804.38;;;13.79;61.21
9822;BME280;4950;46.042;14.472;2023-04-20T12:54:27;97806.38;;;13.83;62.01
9822;BME280;4950;46.042;14.472;2023-04-20T12:56:53;97791.94;;;13.81;62.26
9822;BME280;4950;46.042;14.472;2023-04-20T12:59:20;97794.53;;;13.81;62.63
9822;BME280;4950;46.042;14.472;2023-04-20T13:01:47;97792.94;;;13.93;66.16
9822;BME280;4950;46.042;14.472;2023-04-20T13:04:13;97792.19;;;14.06;64.04
9822;BME280;4950;46.042;14.472;2023-04-20T13:06:40;97787.56;;;14.15;62.15
9822;BME280;4950;46.042;14.472;2023-04-20T13:09:08;97789.38;;;14.14;61.46